Time;durP1;ratioP1;P1;durP2;ratioP2;P2;SDS_P1;SDS_P2;PMS_P1;PMS_P2;Temp;Humidity;BMP_temperature;BMP_pressure;BME280_temperature;BME280_humidity;BME280_pressure;Samples;Min_cycle;Max_cycle;Signal;HPM_P1;HPM_P2
2023/01/02 00:01:32;;;;;;;;;;;;;;;;;;6210405;23;19919;-78
2023/01/02 00:03:58;;;;;;;;;;;;;;;;;;6210121;23;19938;-76
2023/01/02 00:06:23;;;;;;;;;;;;;;;;;;6208650;23;19920;-76
2023/01/02 00:08:49;;;;;;;;;;;;;;;;;;6210031;23;19924;-76
2023/01/02 00:11:15;;;;;;;;;;;;;;;;;;6208694;23;20448;-76
2023/01/02 00:13:40;;;;;;;;;;;;;;;;;;6210050;23;19916;-75
2023/01/02 00:16:06;;;;;;;;;;;;;;;;;;6210279;23;19915;-75
2023/01/02 00:18:32;;;;;;;;;;;;;;;;;;6208596;23;20353;-76
2023/01/02 00:20:58;;;;;;;;;;;;;;;;;;6210176;23;19966;-76
2023/01/02 00:23:23;;;;;;;;;;;;;;;;;;6210339;23;20569;-75
2023/01/02 00:25:49;;;;;;;;;;;;;;;;;;6208228;23;19908;-77
2023/01/02 00:28:14;;;;;;;;;;;;;;;;;;6210593;23;20011;-77
2023/01/02 00:30:40;;;;;;;;;;;;;;;;;;6210135;23;19980;-78
2023/01/02 00:33:06;;;;;;;;;;;;;;;;;;6208300;23;20308;-74
2023/01/02 00:35:31;;;;;;;;;;;;;;;;;;6210202;23;20304;-77
2023/01/02 00:37:57;;;;;;;;;;;;;;;;;;6210340;23;19912;-79
2023/01/02 00:40:23;;;;;;;;;;;;;;;;;;6210752;23;19970;-78
2023/01/02 00:42:49;;;;;;;;;;;;;;;;;;6212006;23;19998;-77
2023/01/02 00:45:14;;;;;;;;;;;;;;;;;;6212092;23;19918;-76
2023/01/02 00:47:40;;;;;;;;;;;;;;;;;;6210290;23;19923;-77
2023/01/02 00:50:06;;;;;;;;;;;;;;;;;;6211763;23;20315;-75
2023/01/02 00:52:31;;;;;;;;;;;;;;;;;;6212058;23;19918;-76
2023/01/02 00:54:57;;;;;;;;;;;;;;;;;;6210017;23;19954;-76
2023/01/02 00:57:23;;;;;;;;;;;;;;;;;;6211900;23;20375;-79
2023/01/02 00:59:48;;;;;;;;;;;;;;;;;;6210096;23;20036;-79
2023/01/02 01:02:14;;;;;;;;;;;;;;;;;;6210327;23;19976;-79
2023/01/02 01:04:40;;;;;;;;;;;;;;;;;;6212327;23;20357;-78
2023/01/02 01:07:06;;;;;;;;;;;;;;;;;;6210248;23;20365;-79
2023/01/02 01:09:31;;;;;;;;;;;;;;;;;;6185394;23;20368;-77
2023/01/02 01:11:57;;;;;;;;;;;;;;;;;;6211585;23;20380;-77
2023/01/02 01:14:23;;;;;;;;;;;;;;;;;;6212108;23;19915;-79
2023/01/02 01:16:48;;;;;;;;;;;;;;;;;;6211400;23;19912;-78
2023/01/02 01:19:14;;;;;;;;;;;;;;;;;;6210045;23;20309;-78
2023/01/02 01:21:40;;;;;;;;;;;;;;;;;;6211590;23;20246;-78
2023/01/02 01:24:06;;;;;;;;;;;;;;;;;;6211258;23;19935;-78
2023/01/02 01:26:31;;;;;;;;;;;;;;;;;;6211433;23;20304;-77
2023/01/02 01:28:57;;;;;;;;;;;;;;;;;;6211198;23;19927;-77
2023/01/02 01:31:23;;;;;;;;;;;;;;;;;;6211649;23;20523;-79
2023/01/02 01:33:48;;;;;;;;;;;;;;;;;;6211501;23;19911;-77
2023/01/02 01:36:14;;;;;;;;;;;;;;;;;;6211158;23;20003;-75
2023/01/02 01:38:40;;;;;;;;;;;;;;;;;;6211737;23;19916;-77
2023/01/02 01:41:06;;;;;;;;;;;;;;;;;;6184739;23;19934;-76
2023/01/02 01:43:31;;;;;;;;;;;;;;;;;;6211513;23;20038;-77
2023/01/02 01:45:58;;;;;;;;;;;;;;;;;;6209621;23;20356;-78
2023/01/02 01:48:24;;;;;;;;;;;;;;;;;;6211122;23;19955;-77
2023/01/02 01:50:49;;;;;;;;;;;;;;;;;;6211164;23;20372;-77
2023/01/02 01:53:15;;;;;;;;;;;;;;;;;;6209793;23;19912;-79
2023/01/02 01:55:41;;;;;;;;;;;;;;;;;;6212898;23;19922;-78
2023/01/02 01:58:06;;;;;;;;;;;;;;;;;;6212160;23;19994;-77
2023/01/02 02:00:32;;;;;;;;;;;;;;;;;;6211113;23;20375;-78
2023/01/02 02:02:58;;;;;;;;;;;;;;;;;;6211052;23;19912;-77
2023/01/02 02:05:24;;;;;;;;;;;;;;;;;;6209888;23;19969;-78
2023/01/02 02:07:49;;;;;;;;;;;;;;;;;;6209615;23;19920;-77
2023/01/02 02:10:15;;;;;;;;;;;;;;;;;;6211260;23;19912;-78
2023/01/02 02:12:40;;;;;;;;;;;;;;;;;;6184604;23;20265;-78
2023/01/02 02:15:06;;;;;;;;;;;;;;;;;;6209088;23;19962;-76
2023/01/02 02:17:36;;;;;;;;;;;;;;;;;;6185830;23;19920;-77
2023/01/02 02:20:02;;;;;;;;;;;;;;;;;;6216964;23;19912;-76
2023/01/02 02:22:28;;;;;;;;;;;;;;;;;;6219856;23;19990;-78
2023/01/02 02:24:54;;;;;;;;;;;;;;;;;;6219808;23;19912;-78
2023/01/02 02:27:19;;;;;;;;;;;;;;;;;;6212421;23;19950;-78
2023/01/02 02:29:45;;;;;;;;;;;;;;;;;;6210228;23;20023;-78
2023/01/02 02:32:11;;;;;;;;;;;;;;;;;;6184242;23;19916;-78
2023/01/02 02:34:36;;;;;;;;;;;;;;;;;;6211364;23;19911;-81
2023/01/02 02:37:02;;;;;;;;;;;;;;;;;;6210583;23;19995;-79
2023/01/02 02:39:28;;;;;;;;;;;;;;;;;;6209501;23;19966;-81
2023/01/02 02:41:54;;;;;;;;;;;;;;;;;;6210834;23;20011;-79
2023/01/02 02:44:19;;;;;;;;;;;;;;;;;;6211115;23;19912;-78
2023/01/02 02:46:45;;;;;;;;;;;;;;;;;;6210970;23;19940;-78
2023/01/02 02:49:11;;;;;;;;;;;;;;;;;;6210763;23;20006;-79
2023/01/02 02:51:40;;;;;;;;;;;;;;;;;;6209586;23;19916;-79
2023/01/02 02:54:06;;;;;;;;;;;;;;;;;;6209107;23;19918;-78
2023/01/02 02:56:31;;;;;;;;;;;;;;;;;;6210848;23;19987;-81
2023/01/02 02:58:57;;;;;;;;;;;;;;;;;;6210438;23;19912;-80
2023/01/02 03:01:23;;;;;;;;;;;;;;;;;;6211348;23;19986;-80
2023/01/02 03:03:48;;;;;;;;;;;;;;;;;;6216221;23;19912;-81
2023/01/02 03:06:14;;;;;;;;;;;;;;;;;;6213862;23;19912;-80
2023/01/02 03:08:40;;;;;;;;;;;;;;;;;;6213388;23;19924;-82
2023/01/02 03:11:06;;;;;;;;;;;;;;;;;;6215837;23;19912;-82
2023/01/02 03:13:31;;;;;;;;;;;;;;;;;;6217703;23;19916;-77
2023/01/02 03:15:57;;;;;;;;;;;;;;;;;;6216688;23;19919;-79
2023/01/02 03:18:23;;;;;;;;;;;;;;;;;;6214188;23;19950;-80
2023/01/02 03:20:48;;;;;;;;;;;;;;;;;;6213472;23;19912;-80
2023/01/02 03:23:14;;;;;;;;;;;;;;;;;;6212559;23;19908;-79
2023/01/02 03:25:40;;;;;;;;;;;;;;;;;;6209178;23;20017;-79
2023/01/02 03:28:05;;;;;;;;;;;;;;;;;;6210328;23;19921;-78
2023/01/02 03:30:31;;;;;;;;;;;;;;;;;;6210853;23;19994;-79
2023/01/02 03:32:57;;;;;;;;;;;;;;;;;;6210990;23;19911;-80
2023/01/02 03:35:22;;;;;;;;;;;;;;;;;;6211795;23;19919;-82
2023/01/02 03:37:48;;;;;;;;;;;;;;;;;;6211572;23;19912;-81
2023/01/02 03:40:14;;;;;;;;;;;;;;;;;;6211125;23;20342;-81
2023/01/02 03:42:40;;;;;;;;;;;;;;;;;;6209650;23;19912;-81
2023/01/02 03:45:05;;;;;;;;;;;;;;;;;;6208846;23;19986;-79
2023/01/02 03:47:31;;;;;;;;;;;;;;;;;;6210229;23;19912;-80
2023/01/02 03:49:57;;;;;;;;;;;;;;;;;;6210462;23;20296;-81
2023/01/02 03:52:22;;;;;;;;;;;;;;;;;;6209314;23;19912;-81
2023/01/02 03:54:48;;;;;;;;;;;;;;;;;;6210389;23;19947;-80
2023/01/02 03:57:14;;;;;;;;;;;;;;;;;;6211462;23;20264;-81
2023/01/02 03:59:40;;;;;;;;;;;;;;;;;;6218185;23;19923;-81
2023/01/02 04:02:05;;;;;;;;;;;;;;;;;;6228438;23;19911;-80
2023/01/02 04:04:31;;;;;;;;;;;;;;;;;;6228311;23;19919;-78
2023/01/02 04:06:57;;;;;;;;;;;;;;;;;;6227829;23;19912;-80
2023/01/02 04:09:23;;;;;;;;;;;;;;;;;;6225920;23;20458;-79
2023/01/02 04:11:49;;;;;;;;;;;;;;;;;;6222364;23;19918;-82
2023/01/02 04:14:15;;;;;;;;;;;;;;;;;;6213472;23;20440;-81
2023/01/02 04:16:41;;;;;;;;;;;;;;;;;;6214052;23;19947;-81
2023/01/02 04:19:06;;;;;;;;;;;;;;;;;;6186725;23;20003;-82
2023/01/02 04:21:32;;;;;;;;;;;;;;;;;;6214024;23;19938;-81
2023/01/02 04:23:58;;;;;;;;;;;;;;;;;;6212457;23;20260;-80
2023/01/02 04:26:23;;;;;;;;;;;;;;;;;;6213758;23;20411;-80
2023/01/02 04:28:49;;;;;;;;;;;;;;;;;;6212743;23;19943;-81
2023/01/02 04:31:15;;;;;;;;;;;;;;;;;;6211964;23;19987;-79
2023/01/02 04:33:40;;;;;;;;;;;;;;;;;;6212576;23;19999;-80
2023/01/02 04:36:07;;;;;;;;;;;;;;;;;;6210958;23;20326;-81
2023/01/02 04:38:32;;;;;;;;;;;;;;;;;;6212756;23;19912;-80
2023/01/02 04:40:58;;;;;;;;;;;;;;;;;;6212145;23;20349;-80
2023/01/02 04:43:24;;;;;;;;;;;;;;;;;;6185687;23;19919;-78
2023/01/02 04:45:49;;;;;;;;;;;;;;;;;;6210731;23;19919;-80
2023/01/02 04:48:15;;;;;;;;;;;;;;;;;;6210849;23;20076;-79
2023/01/02 04:50:41;;;;;;;;;;;;;;;;;;6212430;23;20272;-79
2023/01/02 04:53:08;;;;;;;;;;;;;;;;;;6210330;23;19959;-80
2023/01/02 04:55:34;;;;;;;;;;;;;;;;;;6212235;23;19920;-80
2023/01/02 04:57:59;;;;;;;;;;;;;;;;;;6210060;23;19912;-79
2023/01/02 05:00:25;;;;;;;;;;;;;;;;;;6211775;23;19911;-78
2023/01/02 05:02:51;;;;;;;;;;;;;;;;;;6214144;23;19916;-81
2023/01/02 05:05:16;;;;;;;;;;;;;;;;;;6210186;23;19912;-80
2023/01/02 05:07:42;;;;;;;;;;;;;;;;;;6211999;23;19970;-80
2023/01/02 05:10:08;;;;;;;;;;;;;;;;;;6210617;23;20240;-81
2023/01/02 05:12:33;;;;;;;;;;;;;;;;;;6213267;23;20256;-81
2023/01/02 05:14:59;;;;;;;;;;;;;;;;;;6212912;23;20399;-81
2023/01/02 05:17:25;;;;;;;;;;;;;;;;;;6210589;23;19911;-79
2023/01/02 05:19:50;;;;;;;;;;;;;;;;;;6210341;23;19951;-79
2023/01/02 05:25:00;;;;;;;;;;;;;;;;;;6185018;23;20402;-79
2023/01/02 05:27:26;;;;;;;;;;;;;;;;;;6211666;23;20349;-79
2023/01/02 05:29:52;;;;;;;;;;;;;;;;;;6211839;23;19920;-78
2023/01/02 05:32:18;;;;;;;;;;;;;;;;;;6210543;23;20324;-81
2023/01/02 05:34:43;;;;;;;;;;;;;;;;;;6211324;23;19958;-80
2023/01/02 05:37:09;;;;;;;;;;;;;;;;;;6210033;23;20288;-81
2023/01/02 05:39:35;;;;;;;;;;;;;;;;;;6210600;23;20395;-80
2023/01/02 05:42:00;;;;;;;;;;;;;;;;;;6210451;23;20016;-80
2023/01/02 05:44:26;;;;;;;;;;;;;;;;;;6210710;23;19987;-80
2023/01/02 05:46:52;;;;;;;;;;;;;;;;;;6210643;23;19911;-79
2023/01/02 05:49:18;;;;;;;;;;;;;;;;;;6209909;23;19974;-80
2023/01/02 05:51:43;;;;;;;;;;;;;;;;;;6211319;23;19912;-80
2023/01/02 05:54:09;;;;;;;;;;;;;;;;;;6211216;23;19912;-80
2023/01/02 05:56:35;;;;;;;;;;;;;;;;;;6211499;23;19921;-80
2023/01/02 05:59:00;;;;;;;;;;;;;;;;;;6211722;23;20409;-80
2023/01/02 06:01:26;;;;;;;;;;;;;;;;;;6213120;23;19912;-80
2023/01/02 06:03:52;;;;;;;;;;;;;;;;;;6214187;23;20257;-81
2023/01/02 06:06:17;;;;;;;;;;;;;;;;;;6213381;23;19916;-82
2023/01/02 06:08:43;;;;;;;;;;;;;;;;;;6212128;23;19927;-81
2023/01/02 06:11:09;;;;;;;;;;;;;;;;;;6184990;23;20315;-82
2023/01/02 06:13:34;;;;;;;;;;;;;;;;;;6210366;23;19954;-80
2023/01/02 06:16:00;;;;;;;;;;;;;;;;;;6211372;23;19939;-82
2023/01/02 06:18:26;;;;;;;;;;;;;;;;;;6214361;23;19918;-82
2023/01/02 06:20:51;;;;;;;;;;;;;;;;;;6213456;23;20065;-82
2023/01/02 06:23:17;;;;;;;;;;;;;;;;;;6214296;23;19912;-79
2023/01/02 06:25:42;;;;;;;;;;;;;;;;;;6209560;23;19995;-80
2023/01/02 06:28:08;;;;;;;;;;;;;;;;;;6211366;23;19955;-81
2023/01/02 06:30:34;;;;;;;;;;;;;;;;;;6216579;23;19916;-80
2023/01/02 06:33:00;;;;;;;;;;;;;;;;;;6213847;23;19919;-81
2023/01/02 06:35:25;;;;;;;;;;;;;;;;;;6211488;23;19995;-80
2023/01/02 06:37:51;;;;;;;;;;;;;;;;;;6211799;23;20345;-81
2023/01/02 06:40:17;;;;;;;;;;;;;;;;;;6213902;23;19911;-79
2023/01/02 06:42:43;;;;;;;;;;;;;;;;;;6210659;23;19912;-80
2023/01/02 06:45:08;;;;;;;;;;;;;;;;;;6204926;23;20361;-78
2023/01/02 06:47:34;;;;;;;;;;;;;;;;;;6204735;23;19981;-77
2023/01/02 06:50:00;;;;;;;;;;;;;;;;;;6185631;23;20442;-81
2023/01/02 06:52:25;;;;;;;;;;;;;;;;;;6213439;23;20348;-82
2023/01/02 06:54:51;;;;;;;;;;;;;;;;;;6214044;23;20270;-82
2023/01/02 06:57:16;;;;;;;;;;;;;;;;;;6206379;23;19912;-81
2023/01/02 06:59:42;;;;;;;;;;;;;;;;;;6211670;23;19982;-80
2023/01/02 07:02:08;;;;;;;;;;;;;;;;;;6212651;23;20308;-81
2023/01/02 07:04:33;;;;;;;;;;;;;;;;;;6222267;23;19923;-80
2023/01/02 07:07:00;;;;;;;;;;;;;;;;;;6221860;23;19955;-81
2023/01/02 07:09:25;;;;;;;;;;;;;;;;;;6212944;23;20057;-80
2023/01/02 07:11:52;;;;;;;;;;;;;;;;;;6206470;23;20344;-78
2023/01/02 07:14:18;;;;;;;;;;;;;;;;;;6209817;23;19935;-80
2023/01/02 07:16:44;;;;;;;;;;;;;;;;;;6213518;23;20349;-81
2023/01/02 07:19:10;;;;;;;;;;;;;;;;;;6213358;23;19950;-80
2023/01/02 07:21:35;;;;;;;;;;;;;;;;;;6214095;23;20224;-80
2023/01/02 07:24:01;;;;;;;;;;;;;;;;;;6214879;23;19990;-80
2023/01/02 07:26:27;;;;;;;;;;;;;;;;;;6215650;23;19916;-82
2023/01/02 07:28:53;;;;;;;;;;;;;;;;;;6210793;23;20448;-79
2023/01/02 07:31:18;;;;;;;;;;;;;;;;;;6214658;23;19959;-82
2023/01/02 07:33:44;;;;;;;;;;;;;;;;;;6223228;23;19936;-81
2023/01/02 07:36:10;;;;;;;;;;;;;;;;;;6216137;23;19946;-82
2023/01/02 07:38:37;;;;;;;;;;;;;;;;;;6216947;23;19912;-81
2023/01/02 07:41:03;;;;;;;;;;;;;;;;;;6213150;23;19911;-81
2023/01/02 07:43:29;;;;;;;;;;;;;;;;;;6209565;23;20400;-81
2023/01/02 07:45:54;;;;;;;;;;;;;;;;;;6209456;23;19912;-81
2023/01/02 07:48:20;;;;;;;;;;;;;;;;;;6221370;23;19916;-83
2023/01/02 07:50:45;;;;;;;;;;;;;;;;;;6215194;23;19923;-79
2023/01/02 07:53:11;;;;;;;;;;;;;;;;;;6232904;23;19955;-82
2023/01/02 09:14:57;;;;;;;;;;;;;;;;;;6226796;23;19982;-78
2023/01/02 09:17:23;;;;;;;;;;;;;;;;;;6240328;23;20463;-78
2023/01/02 09:19:48;;;;;;;;;;;;;;;;;;6238885;23;19998;-78
2023/01/02 09:22:14;;;;;;;;;;;;;;;;;;6239776;23;20262;-77
2023/01/02 09:24:39;;;;;;;;;;;;;;;;;;6241024;23;19908;-77
2023/01/02 09:27:05;;;;;;;;;;;;;;;;;;6240803;23;20002;-79
2023/01/02 09:29:30;;;;;;;;;;;;;;;;;;6240419;23;19926;-75
2023/01/02 09:31:56;;;;;;;;;;;;;;;;;;6241244;23;20018;-75
2023/01/02 09:34:22;;;;;;;;;;;;;;;;;;6241321;23;20037;-78
2023/01/02 09:36:48;;;;;;;;;;;;;;;;;;6241114;23;19918;-79
2023/01/02 09:39:14;;;;;;;;;;;;;;;;;;6189702;23;20272;-78
2023/01/02 09:41:39;;;;;;;;;;;;;;;;;;6213433;23;19994;-78
2023/01/02 09:44:05;;;;;;;;;;;;;;;;;;6212817;23;19916;-79
2023/01/02 09:46:31;;;;;;;;;;;;;;;;;;6241186;23;19947;-80
2023/01/02 09:48:56;;;;;;;;;;;;;;;;;;6213946;23;20397;-76
2023/01/02 09:51:22;;;;;;;;;;;;;;;;;;6239779;23;20264;-77
2023/01/02 09:53:48;;;;;;;;;;;;;;;;;;6240843;23;19972;-75
2023/01/02 09:56:14;;;;;;;;;;;;;;;;;;6189012;23;19915;-76
2023/01/02 09:58:40;;;;;;;;;;;;;;;;;;6213386;23;19986;-76
2023/01/02 10:01:06;;;;;;;;;;;;;;;;;;6187993;23;19912;-77
2023/01/02 10:03:33;;;;;;;;;;;;;;;;;;6212052;23;19916;-76
2023/01/02 10:05:58;;;;;;;;;;;;;;;;;;6241567;23;19911;-77
2023/01/02 10:08:24;;;;;;;;;;;;;;;;;;6214171;23;19920;-76
2023/01/02 10:10:50;;;;;;;;;;;;;;;;;;6213684;23;19911;-77
2023/01/02 10:13:15;;;;;;;;;;;;;;;;;;6210270;23;19927;-77
2023/01/02 10:15:41;;;;;;;;;;;;;;;;;;6211807;23;19926;-74
2023/01/02 10:18:07;;;;;;;;;;;;;;;;;;6238471;23;19991;-74
2023/01/02 10:20:33;;;;;;;;;;;;;;;;;;6236407;23;19919;-72
2023/01/02 10:22:58;;;;;;;;;;;;;;;;;;6209688;23;19919;-74
2023/01/02 10:25:24;;;;;;;;;;;;;;;;;;6236742;23;19912;-74
2023/01/02 10:27:50;;;;;;;;;;;;;;;;;;6184615;23;19916;-72
2023/01/02 10:30:16;;;;;;;;;;;;;;;;;;6237628;23;19915;-73
2023/01/02 10:32:44;;;;;;;;;;;;;;;;;;6238632;23;19911;-74
2023/01/02 10:35:10;;;;;;;;;;;;;;;;;;6241391;23;20041;-74
2023/01/02 10:37:36;;;;;;;;;;;;;;;;;;6241320;23;19911;-73
2023/01/02 10:40:03;;;;;;;;;;;;;;;;;;6241760;23;19911;-73
2023/01/02 10:42:29;;;;;;;;;;;;;;;;;;6214663;23;19918;-74
2023/01/02 10:44:54;;;;;;;;;;;;;;;;;;6242218;23;20210;-74
2023/01/02 10:47:21;;;;;;;;;;;;;;;;;;6243467;23;19911;-74
2023/01/02 10:49:47;;;;;;;;;;;;;;;;;;6246880;23;19920;-74
2023/01/02 10:52:13;;;;;;;;;;;;;;;;;;6221595;23;20375;-73
2023/01/02 10:54:38;;;;;;;;;;;;;;;;;;6223628;23;19912;-73
2023/01/02 10:57:04;;;;;;;;;;;;;;;;;;6250291;23;19911;-73
2023/01/02 10:59:30;;;;;;;;;;;;;;;;;;6247300;23;19918;-73
2023/01/02 11:01:56;;;;;;;;;;;;;;;;;;6190959;23;19915;-74
2023/01/02 11:04:22;;;;;;;;;;;;;;;;;;6241267;23;19912;-73
2023/01/02 11:06:47;;;;;;;;;;;;;;;;;;6214739;23;19916;-73
2023/01/02 11:09:13;;;;;;;;;;;;;;;;;;6241447;23;19973;-73
2023/01/02 11:11:39;;;;;;;;;;;;;;;;;;6240813;23;19919;-73
2023/01/02 11:14:05;;;;;;;;;;;;;;;;;;6241144;23;20376;-73
2023/01/02 11:16:32;;;;;;;;;;;;;;;;;;6241187;23;20238;-72
2023/01/02 11:18:57;;;;;;;;;;;;;;;;;;6214171;23;19912;-73
2023/01/02 11:21:23;;;;;;;;;;;;;;;;;;6213702;23;19933;-74
2023/01/02 11:23:49;;;;;;;;;;;;;;;;;;6240968;23;19919;-73
2023/01/02 11:26:14;;;;;;;;;;;;;;;;;;6240907;23;20371;-73
2023/01/02 11:28:41;;;;;;;;;;;;;;;;;;6240297;23;19919;-73
2023/01/02 11:31:06;;;;;;;;;;;;;;;;;;6240975;23;19918;-73
2023/01/02 11:33:33;;;;;;;;;;;;;;;;;;6213724;23;20264;-73
2023/01/02 11:35:59;;;;;;;;;;;;;;;;;;6240781;23;20352;-73
2023/01/02 11:38:24;;;;;;;;;;;;;;;;;;6240645;23;20001;-74
2023/01/02 11:40:50;;;;;;;;;;;;;;;;;;6240988;23;19934;-74
2023/01/02 11:46:05;;;;;;;;;;;;;;;;;;6240783;23;19958;-74
2023/01/02 11:48:30;;;;;;;;;;;;;;;;;;6240310;23;20410;-74
2023/01/02 11:50:56;;;;;;;;;;;;;;;;;;6213914;23;20292;-73
2023/01/02 11:53:23;;;;;;;;;;;;;;;;;;6213721;23;19912;-74
2023/01/02 11:55:49;;;;;;;;;;;;;;;;;;6214115;23;19922;-74
2023/01/02 11:58:15;;;;;;;;;;;;;;;;;;6213881;23;19923;-74
2023/01/02 12:00:40;;;;;;;;;;;;;;;;;;6214111;23;19958;-73
2023/01/02 12:03:06;;;;;;;;;;;;;;;;;;6240663;23;20336;-73
2023/01/02 12:05:32;;;;;;;;;;;;;;;;;;6240499;23;20308;-74
2023/01/02 12:08:00;;;;;;;;;;;;;;;;;;6240606;23;19911;-73
2023/01/02 12:10:25;;;;;;;;;;;;;;;;;;6240630;23;20023;-73
2023/01/02 12:12:51;;;;;;;;;;;;;;;;;;6213823;23;19943;-73
2023/01/02 12:15:17;;;;;;;;;;;;;;;;;;6240526;23;19923;-73
2023/01/02 12:17:43;;;;;;;;;;;;;;;;;;6240181;23;19911;-73
2023/01/02 12:20:08;;;;;;;;;;;;;;;;;;6240705;23;19963;-73
2023/01/02 12:22:34;;;;;;;;;;;;;;;;;;6213689;23;19927;-74
2023/01/02 12:25:00;;;;;;;;;;;;;;;;;;6188761;23;20006;-73
2023/01/02 12:27:26;;;;;;;;;;;;;;;;;;6240182;23;19923;-74
2023/01/02 12:29:51;;;;;;;;;;;;;;;;;;6241020;23;19943;-74
2023/01/02 12:32:17;;;;;;;;;;;;;;;;;;6214641;23;19907;-74
2023/01/02 12:34:43;;;;;;;;;;;;;;;;;;6242510;23;19912;-74
2023/01/02 12:37:08;;;;;;;;;;;;;;;;;;6215994;23;20310;-74
2023/01/02 12:39:34;;;;;;;;;;;;;;;;;;6215508;23;19915;-74
2023/01/02 12:42:00;;;;;;;;;;;;;;;;;;6242740;23;19918;-73
2023/01/02 12:44:26;;;;;;;;;;;;;;;;;;6242596;23;19918;-74
2023/01/02 12:46:52;;;;;;;;;;;;;;;;;;6242696;23;19911;-74
2023/01/02 12:49:18;;;;;;;;;;;;;;;;;;6242508;23;20271;-74
2023/01/02 12:51:44;;;;;;;;;;;;;;;;;;6242238;23;19990;-74
2023/01/02 12:54:09;;;;;;;;;;;;;;;;;;6215704;23;19911;-74
2023/01/02 12:56:37;;;;;;;;;;;;;;;;;;6242199;23;19912;-73
2023/01/02 12:59:03;;;;;;;;;;;;;;;;;;6242350;23;19932;-74
2023/01/02 13:01:28;;;;;;;;;;;;;;;;;;6242258;23;19911;-74
2023/01/02 13:03:54;;;;;;;;;;;;;;;;;;6215527;23;19912;-74
2023/01/02 13:06:20;;;;;;;;;;;;;;;;;;6242641;23;19947;-74
2023/01/02 13:08:45;;;;;;;;;;;;;;;;;;6241916;23;19924;-74
2023/01/02 13:11:11;;;;;;;;;;;;;;;;;;6242604;23;20033;-73
2023/01/02 13:13:37;;;;;;;;;;;;;;;;;;6241662;23;19911;-74
2023/01/02 13:16:03;;;;;;;;;;;;;;;;;;6242716;23;19911;-73
2023/01/02 13:18:29;;;;;;;;;;;;;;;;;;6242248;23;19942;-73
2023/01/02 13:20:54;;;;;;;;;;;;;;;;;;6242222;23;19912;-75
2023/01/02 13:23:20;;;;;;;;;;;;;;;;;;6215655;23;19944;-74
2023/01/02 13:25:46;;;;;;;;;;;;;;;;;;6242143;23;19922;-74
2023/01/02 13:28:11;;;;;;;;;;;;;;;;;;6242142;23;19926;-74
2023/01/02 13:30:37;;;;;;;;;;;;;;;;;;6241737;23;19915;-74
2023/01/02 13:33:03;;;;;;;;;;;;;;;;;;6242202;23;19917;-74
2023/01/02 13:35:29;;;;;;;;;;;;;;;;;;6242238;23;20353;-74
2023/01/02 13:37:54;;;;;;;;;;;;;;;;;;6242345;23;19912;-74
2023/01/02 13:40:20;;;;;;;;;;;;;;;;;;6242803;23;19922;-74
2023/01/02 13:42:58;;;;;;;;;;;;;;;;;;6215712;23;19915;-73
2023/01/02 13:45:23;;;;;;;;;;;;;;;;;;6243005;23;20414;-75
2023/01/02 13:47:49;;;;;;;;;;;;;;;;;;6242128;23;19994;-74
2023/01/02 13:50:15;;;;;;;;;;;;;;;;;;6242253;23;19994;-74
2023/01/02 13:52:40;;;;;;;;;;;;;;;;;;6214910;23;19911;-74
2023/01/02 13:55:06;;;;;;;;;;;;;;;;;;6242675;23;19965;-73
2023/01/02 13:57:32;;;;;;;;;;;;;;;;;;6243029;23;20375;-74
2023/01/02 13:59:58;;;;;;;;;;;;;;;;;;6245896;23;19912;-74
2023/01/02 14:02:23;;;;;;;;;;;;;;;;;;6244479;23;19935;-74
2023/01/02 14:04:49;;;;;;;;;;;;;;;;;;6244100;23;19911;-74
2023/01/02 14:07:15;;;;;;;;;;;;;;;;;;6244709;23;19911;-73
2023/01/02 14:09:40;;;;;;;;;;;;;;;;;;6243646;23;19926;-73
2023/01/02 14:12:06;;;;;;;;;;;;;;;;;;6243940;23;20256;-73
2023/01/02 14:14:34;;;;;;;;;;;;;;;;;;6243810;23;19981;-73
2023/01/02 14:17:00;;;;;;;;;;;;;;;;;;6243668;23;20352;-73
2023/01/02 14:19:26;;;;;;;;;;;;;;;;;;6243015;23;19911;-72
2023/01/02 14:21:53;;;;;;;;;;;;;;;;;;6243264;23;19918;-73
2023/01/02 14:24:18;;;;;;;;;;;;;;;;;;6216546;23;19911;-73
2023/01/02 14:26:44;;;;;;;;;;;;;;;;;;6216125;23;19962;-73
2023/01/02 14:29:10;;;;;;;;;;;;;;;;;;6243228;23;19973;-73
2023/01/02 14:31:36;;;;;;;;;;;;;;;;;;6243218;23;19923;-72
2023/01/02 14:34:02;;;;;;;;;;;;;;;;;;6243056;23;19947;-73
2023/01/02 14:36:27;;;;;;;;;;;;;;;;;;6216522;23;20010;-73
2023/01/02 14:38:53;;;;;;;;;;;;;;;;;;6240007;23;19958;-73
2023/01/02 14:44:03;;;;;;;;;;;;;;;;;;6215081;23;19939;-74
2023/01/02 14:46:29;;;;;;;;;;;;;;;;;;6215107;23;19919;-72
2023/01/02 14:48:57;;;;;;;;;;;;;;;;;;6214578;23;19927;-72
2023/01/02 14:51:22;;;;;;;;;;;;;;;;;;6189251;23;19915;-73
2023/01/02 14:53:48;;;;;;;;;;;;;;;;;;6240318;23;19951;-73
2023/01/02 14:56:14;;;;;;;;;;;;;;;;;;6240991;23;19965;-73
2023/01/02 14:58:40;;;;;;;;;;;;;;;;;;6222744;23;19934;-78
2023/01/02 15:01:05;;;;;;;;;;;;;;;;;;6253662;23;20435;-79
2023/01/02 15:03:31;;;;;;;;;;;;;;;;;;6249860;23;20303;-79
2023/01/02 15:05:57;;;;;;;;;;;;;;;;;;6246019;23;20330;-79
2023/01/02 15:08:23;;;;;;;;;;;;;;;;;;6247367;23;19920;-79
2023/01/02 15:10:48;;;;;;;;;;;;;;;;;;6249986;23;19911;-79
2023/01/02 15:13:14;;;;;;;;;;;;;;;;;;6249739;23;19919;-83
2023/01/02 15:15:40;;;;;;;;;;;;;;;;;;6211204;23;19946;-82
2023/01/02 15:18:05;;;;;;;;;;;;;;;;;;6239654;23;19923;-79
2023/01/02 15:20:33;;;;;;;;;;;;;;;;;;6239314;23;19917;-78
2023/01/02 15:22:58;;;;;;;;;;;;;;;;;;6240835;23;19918;-81
2023/01/02 15:25:24;;;;;;;;;;;;;;;;;;6249476;23;19911;-83
2023/01/02 15:27:49;;;;;;;;;;;;;;;;;;6254160;23;19911;-80
2023/01/02 15:30:15;;;;;;;;;;;;;;;;;;6259482;23;19967;-81
2023/01/02 15:32:40;;;;;;;;;;;;;;;;;;6244267;23;20315;-78
2023/01/02 15:35:06;;;;;;;;;;;;;;;;;;6236145;23;19986;-80
2023/01/02 15:37:32;;;;;;;;;;;;;;;;;;6238915;23;19918;-79
2023/01/02 15:39:57;;;;;;;;;;;;;;;;;;6245018;23;19965;-80
2023/01/02 15:45:10;;;;;;;;;;;;;;;;;;6244880;23;19912;-81
2023/01/02 15:47:36;;;;;;;;;;;;;;;;;;6244133;23;19926;-80
2023/01/02 15:50:01;;;;;;;;;;;;;;;;;;6248718;23;19919;-81
2023/01/02 15:52:28;;;;;;;;;;;;;;;;;;6248013;23;19911;-82
2023/01/02 15:54:53;;;;;;;;;;;;;;;;;;6251065;23;19933;-82
2023/01/02 15:57:19;;;;;;;;;;;;;;;;;;6209679;23;19923;-80
2023/01/02 15:59:44;;;;;;;;;;;;;;;;;;6243254;23;19912;-79
2023/01/02 16:02:10;;;;;;;;;;;;;;;;;;6242131;23;19922;-81
2023/01/02 16:04:36;;;;;;;;;;;;;;;;;;6220438;23;19911;-77
2023/01/02 16:07:02;;;;;;;;;;;;;;;;;;6227366;23;19911;-82
2023/01/02 16:09:27;;;;;;;;;;;;;;;;;;6234299;23;19927;-80
2023/01/02 16:11:53;;;;;;;;;;;;;;;;;;6213389;22;20868;-83
2023/01/02 16:14:19;;;;;;;;;;;;;;;;;;6176201;22;19934;-79
2023/01/02 16:16:44;;;;;;;;;;;;;;;;;;6252009;22;19924;-80
2023/01/02 16:19:11;;;;;;;;;;;;;;;;;;6205408;22;19923;-82
2023/01/02 16:21:36;;;;;;;;;;;;;;;;;;6241709;22;19930;-83
2023/01/02 16:24:03;;;;;;;;;;;;;;;;;;6241779;23;19912;-82
2023/01/02 16:26:29;;;;;;;;;;;;;;;;;;6241491;23;19912;-82
2023/01/02 16:28:54;;;;;;;;;;;;;;;;;;6197879;23;20407;-80
2023/01/02 16:31:20;;;;;;;;;;;;;;;;;;6263917;23;19903;-84
2023/01/02 16:33:45;;;;;;;;;;;;;;;;;;6231054;22;20779;-83
2023/01/02 16:36:12;;;;;;;;;;;;;;;;;;6236416;23;19922;-83
2023/01/02 16:38:37;;;;;;;;;;;;;;;;;;6260233;23;20297;-81
2023/01/02 16:41:10;;;;;;;;;;;;;;;;;;6265145;23;19935;-82
2023/01/02 16:43:37;;;;;;;;;;;;;;;;;;6263147;23;19918;-81
2023/01/02 16:46:02;;;;;;;;;;;;;;;;;;6226264;23;19911;-82
2023/01/02 16:48:28;;;;;;;;;;;;;;;;;;6249290;23;20388;-82
2023/01/02 16:50:54;;;;;;;;;;;;;;;;;;6250056;23;19912;-81
2023/01/02 16:53:20;;;;;;;;;;;;;;;;;;6224906;23;19919;-82
2023/01/02 16:55:45;;;;;;;;;;;;;;;;;;6251089;23;19943;-82
2023/01/02 16:58:11;;;;;;;;;;;;;;;;;;6257845;23;19911;-81
2023/01/02 17:00:37;;;;;;;;;;;;;;;;;;6248728;23;19911;-80
2023/01/02 17:03:02;;;;;;;;;;;;;;;;;;6250282;23;20363;-81
2023/01/02 17:05:28;;;;;;;;;;;;;;;;;;6250799;23;19949;-81
2023/01/02 17:07:54;;;;;;;;;;;;;;;;;;6249335;23;19911;-81
2023/01/02 17:10:20;;;;;;;;;;;;;;;;;;6245914;23;20260;-80
2023/01/02 17:12:45;;;;;;;;;;;;;;;;;;6238368;23;20620;-79
2023/01/02 17:15:11;;;;;;;;;;;;;;;;;;6237016;23;19912;-78
2023/01/02 17:17:37;;;;;;;;;;;;;;;;;;6239220;23;19912;-78
2023/01/02 17:20:02;;;;;;;;;;;;;;;;;;6215766;23;19970;-80
2023/01/02 17:22:28;;;;;;;;;;;;;;;;;;6244607;23;19916;-80
2023/01/02 17:24:54;;;;;;;;;;;;;;;;;;6241412;23;19973;-79
2023/01/02 17:27:20;;;;;;;;;;;;;;;;;;6242202;23;19919;-79
2023/01/02 17:29:46;;;;;;;;;;;;;;;;;;6239974;23;19919;-78
2023/01/02 17:32:11;;;;;;;;;;;;;;;;;;6241127;23;19911;-78
2023/01/02 17:34:37;;;;;;;;;;;;;;;;;;6238339;23;19994;-78
2023/01/02 17:37:03;;;;;;;;;;;;;;;;;;6239837;23;19918;-79
2023/01/02 17:39:28;;;;;;;;;;;;;;;;;;6245388;23;19942;-80
2023/01/02 17:41:54;;;;;;;;;;;;;;;;;;6212929;23;20345;-80
2023/01/02 17:44:20;;;;;;;;;;;;;;;;;;6238947;23;19995;-77
2023/01/02 17:46:45;;;;;;;;;;;;;;;;;;6238648;23;20491;-79
2023/01/02 17:49:11;;;;;;;;;;;;;;;;;;6239056;23;19973;-78
2023/01/02 17:51:37;;;;;;;;;;;;;;;;;;6246353;23;19913;-77
2023/01/02 17:54:03;;;;;;;;;;;;;;;;;;6255508;23;19911;-79
2023/01/02 17:56:28;;;;;;;;;;;;;;;;;;6257173;23;19940;-77
2023/01/02 17:58:55;;;;;;;;;;;;;;;;;;6229656;23;20390;-77
2023/01/02 18:01:20;;;;;;;;;;;;;;;;;;6257090;23;19911;-79
2023/01/02 18:03:46;;;;;;;;;;;;;;;;;;6250863;23;20439;-78
2023/01/02 18:06:14;;;;;;;;;;;;;;;;;;6240037;23;19911;-77